createdAt,value
2023-10-26T00:01:23.696Z,12.50
2023-10-26T00:03:51.874Z,12.00
2023-10-26T00:06:20.215Z,12.10
2023-10-26T00:08:49.736Z,11.60
2023-10-26T00:11:17.785Z,12.20
2023-10-26T00:13:45.875Z,12.40
2023-10-26T00:16:14.320Z,13.57
2023-10-26T00:18:42.372Z,13.32
2023-10-26T00:21:10.495Z,12.57
2023-10-26T00:23:38.878Z,12.52
2023-10-26T00:26:08.305Z,13.60
2023-10-26T00:28:36.447Z,14.10
2023-10-26T00:31:04.652Z,13.70
2023-10-26T00:33:32.753Z,14.60
2023-10-26T00:36:00.873Z,14.13
2023-10-26T00:38:29.030Z,14.25
2023-10-26T00:40:57.370Z,16.20
2023-10-26T00:43:26.907Z,14.35
2023-10-26T00:45:55.636Z,14.10
2023-10-26T00:48:25.138Z,14.32
2023-10-26T00:50:54.001Z,14.23
2023-10-26T00:53:23.112Z,14.00
2023-10-26T00:55:53.363Z,13.40
2023-10-26T00:58:23.132Z,13.50
2023-10-26T01:00:52.731Z,13.60
2023-10-26T01:03:21.603Z,13.07
2023-10-26T01:05:49.871Z,11.90
2023-10-26T01:08:19.527Z,12.05
2023-10-26T01:10:48.596Z,11.45
2023-10-26T01:13:17.326Z,11.95
2023-10-26T01:15:45.775Z,11.82
2023-10-26T01:18:15.243Z,11.48
2023-10-26T01:20:43.790Z,11.32
2023-10-26T01:23:13.461Z,11.35
2023-10-26T01:25:41.788Z,11.32
2023-10-26T01:28:09.937Z,12.57
2023-10-26T01:30:38.090Z,12.30
2023-10-26T01:33:06.346Z,12.37
2023-10-26T01:35:39.560Z,12.05
2023-10-26T01:38:07.860Z,12.40
2023-10-26T01:40:37.285Z,11.48
2023-10-26T01:43:05.402Z,11.00
2023-10-26T01:45:33.670Z,11.93
2023-10-26T01:48:03.707Z,11.93
2023-10-26T01:50:33.685Z,11.25
2023-10-26T01:53:01.790Z,11.68
2023-10-26T01:55:29.817Z,11.10
2023-10-26T01:58:00.135Z,11.60
2023-10-26T02:00:28.365Z,11.30
2023-10-26T02:02:57.325Z,11.18
2023-10-26T02:05:27.152Z,11.30
2023-10-26T02:07:55.329Z,12.90
2023-10-26T02:10:25.047Z,12.50
2023-10-26T02:12:53.168Z,13.15
2023-10-26T02:15:22.797Z,13.63
2023-10-26T02:17:51.201Z,13.55
2023-10-26T02:20:19.425Z,13.60
2023-10-26T02:22:48.020Z,12.85
2023-10-26T02:25:16.610Z,12.43
2023-10-26T02:27:45.311Z,12.70
2023-10-26T02:30:15.023Z,12.02
2023-10-26T02:32:44.591Z,12.68
2023-10-26T02:35:13.959Z,12.80
2023-10-26T02:37:42.049Z,12.48
2023-10-26T02:40:11.003Z,11.80
2023-10-26T02:42:40.097Z,11.77
2023-10-26T02:45:09.962Z,11.10
2023-10-26T02:47:38.929Z,11.02
2023-10-26T02:50:10.377Z,10.70
2023-10-26T02:52:39.128Z,11.73
2023-10-26T02:55:08.631Z,11.70
2023-10-26T02:57:36.850Z,11.73
2023-10-26T03:00:06.222Z,10.82
2023-10-26T03:02:34.433Z,10.55
2023-10-26T03:05:03.425Z,10.70
2023-10-26T03:07:32.857Z,9.73
2023-10-26T03:10:01.041Z,10.93
2023-10-26T03:12:29.327Z,10.85
2023-10-26T03:14:57.427Z,10.90
2023-10-26T03:17:25.500Z,10.23
2023-10-26T03:19:53.839Z,11.00
2023-10-26T03:22:22.543Z,10.20
2023-10-26T03:24:53.287Z,10.97
2023-10-26T03:27:21.581Z,10.82
2023-10-26T03:29:49.695Z,10.40
2023-10-26T03:32:18.706Z,10.07
2023-10-26T03:34:45.911Z,11.00
2023-10-26T03:37:14.832Z,10.77
2023-10-26T03:39:42.956Z,11.00
2023-10-26T03:42:12.429Z,11.25
2023-10-26T03:44:40.507Z,11.23
2023-10-26T03:47:10.927Z,11.40
2023-10-26T03:49:39.441Z,11.60
2023-10-26T03:52:08.102Z,11.10
2023-10-26T03:54:36.206Z,11.10
2023-10-26T03:57:04.705Z,11.30
2023-10-26T03:59:34.182Z,11.40
2023-10-26T04:02:02.302Z,11.07
2023-10-26T04:04:30.489Z,11.27
2023-10-26T04:06:58.560Z,11.30
2023-10-26T04:09:26.707Z,11.68
2023-10-26T04:11:54.828Z,11.25
2023-10-26T04:14:22.920Z,11.50
2023-10-26T04:16:52.364Z,12.00
2023-10-26T04:19:20.436Z,11.60
2023-10-26T04:21:48.510Z,12.25
2023-10-26T04:24:16.713Z,12.10
2023-10-26T04:26:45.011Z,12.13
2023-10-26T04:29:13.060Z,11.87
2023-10-26T04:31:41.194Z,12.65
2023-10-26T04:34:10.672Z,13.20
2023-10-26T04:36:38.776Z,12.90
2023-10-26T04:39:09.335Z,13.90
2023-10-26T04:41:37.634Z,13.30
2023-10-26T04:44:06.748Z,13.95
2023-10-26T04:46:34.920Z,14.13
2023-10-26T04:49:03.100Z,14.32
2023-10-26T04:51:33.533Z,13.52
2023-10-26T04:54:01.777Z,14.35
2023-10-26T04:56:30.090Z,14.13
2023-10-26T04:58:58.122Z,13.93
2023-10-26T05:01:26.336Z,14.00
2023-10-26T05:03:54.591Z,14.20
2023-10-26T05:06:22.852Z,14.25
2023-10-26T05:08:52.386Z,13.57
2023-10-26T05:11:21.400Z,14.48
2023-10-26T05:13:53.477Z,13.77
2023-10-26T05:16:21.982Z,14.30
2023-10-26T05:18:50.200Z,15.20
2023-10-26T05:21:18.407Z,15.25
2023-10-26T05:23:48.450Z,14.80
2023-10-26T05:26:17.960Z,14.75
2023-10-26T05:28:46.255Z,15.07
2023-10-26T05:31:14.326Z,15.27
2023-10-26T05:33:43.168Z,15.02
2023-10-26T05:36:11.344Z,16.17
2023-10-26T05:38:39.474Z,16.27
2023-10-26T05:41:07.768Z,15.35
2023-10-26T05:43:37.170Z,15.88
2023-10-26T05:46:06.555Z,16.05
2023-10-26T05:48:35.368Z,15.93
2023-10-26T05:51:03.816Z,15.63
2023-10-26T05:53:32.099Z,16.70
2023-10-26T05:56:00.936Z,15.48
2023-10-26T05:58:29.351Z,16.33
2023-10-26T06:00:59.135Z,16.00
2023-10-26T06:03:27.339Z,16.40
2023-10-26T06:06:00.884Z,17.55
2023-10-26T06:08:29.554Z,16.92
2023-10-26T06:10:59.042Z,16.13
2023-10-26T06:13:27.608Z,17.33
2023-10-26T06:15:55.822Z,17.80
2023-10-26T06:18:25.369Z,19.30
2023-10-26T06:21:00.339Z,18.48
2023-10-26T06:23:29.807Z,18.30
2023-10-26T06:26:01.332Z,18.70
2023-10-26T06:28:30.549Z,19.80
2023-10-26T06:31:09.272Z,19.60
2023-10-26T06:33:39.306Z,18.88
2023-10-26T06:36:08.825Z,19.70
2023-10-26T06:38:36.943Z,19.58
2023-10-26T06:41:05.437Z,19.43
2023-10-26T06:43:33.514Z,20.40
2023-10-26T06:46:01.823Z,21.23
2023-10-26T06:48:30.020Z,20.47
2023-10-26T06:51:04.129Z,19.48
2023-10-26T06:53:32.333Z,20.15
2023-10-26T06:56:00.613Z,20.98
2023-10-26T06:58:28.870Z,20.90
2023-10-26T07:00:57.126Z,20.55
2023-10-26T07:03:25.744Z,19.13
2023-10-26T07:05:54.361Z,19.90
2023-10-26T07:08:23.821Z,19.20
2023-10-26T07:10:51.910Z,20.23
2023-10-26T07:13:19.949Z,19.27
2023-10-26T07:15:48.235Z,18.52
2023-10-26T07:18:16.862Z,20.80
2023-10-26T07:20:45.081Z,20.70
2023-10-26T07:23:13.919Z,20.40
2023-10-26T07:25:43.508Z,20.35
2023-10-26T07:28:11.629Z,20.40
2023-10-26T07:30:44.020Z,19.90
2023-10-26T07:33:12.434Z,20.60
2023-10-26T07:35:43.442Z,19.50
2023-10-26T07:38:35.467Z,21.00
2023-10-26T07:41:03.642Z,18.70
2023-10-26T07:43:32.097Z,19.40
2023-10-26T07:46:00.187Z,19.50
2023-10-26T07:48:28.350Z,19.48
2023-10-26T07:50:57.733Z,19.83
2023-10-26T07:53:25.931Z,19.33
2023-10-26T07:55:57.872Z,19.03
2023-10-26T07:58:28.141Z,18.80
2023-10-26T08:00:57.017Z,18.40
2023-10-26T08:03:26.524Z,19.02
2023-10-26T08:05:58.547Z,19.70
2023-10-26T08:08:26.843Z,17.83
2023-10-26T08:10:55.314Z,18.60
2023-10-26T08:13:23.433Z,19.23
2023-10-26T08:16:11.970Z,19.67
2023-10-26T08:18:43.300Z,18.80
2023-10-26T08:21:11.588Z,19.35
2023-10-26T08:23:40.077Z,18.98
2023-10-26T08:26:09.066Z,19.20
2023-10-26T08:28:38.170Z,19.38
2023-10-26T08:31:07.970Z,19.15
2023-10-26T08:33:36.249Z,19.43
2023-10-26T08:36:05.723Z,19.23
2023-10-26T08:38:34.835Z,21.45
2023-10-26T08:41:02.945Z,19.45
2023-10-26T08:43:32.015Z,19.67
2023-10-26T08:46:01.510Z,18.80
2023-10-26T08:48:34.989Z,19.60
2023-10-26T08:51:03.317Z,19.55
2023-10-26T08:53:32.679Z,20.08
2023-10-26T08:56:00.957Z,19.08
2023-10-26T08:58:29.230Z,20.60
2023-10-26T09:00:57.696Z,18.52
2023-10-26T09:03:25.807Z,19.65
2023-10-26T09:05:56.515Z,19.48
2023-10-26T09:08:28.475Z,19.33
2023-10-26T09:10:57.454Z,19.23
2023-10-26T09:13:27.784Z,21.08
2023-10-26T09:15:58.592Z,19.60
2023-10-26T09:18:28.834Z,19.10
2023-10-26T09:21:08.455Z,20.00
2023-10-26T09:23:38.342Z,20.02
2023-10-26T09:26:09.015Z,21.10
2023-10-26T09:28:54.211Z,21.35
2023-10-26T09:31:22.947Z,21.77
2023-10-26T09:33:52.194Z,20.30
2023-10-26T09:36:22.455Z,20.88
2023-10-26T09:38:50.694Z,20.20
2023-10-26T09:41:21.114Z,21.33
2023-10-26T09:43:49.665Z,20.08
2023-10-26T09:46:19.035Z,21.23
2023-10-26T09:48:47.877Z,22.00
2023-10-26T09:51:17.395Z,23.00
2023-10-26T09:53:49.430Z,22.35
2023-10-26T09:56:24.557Z,23.15
2023-10-26T09:58:54.755Z,23.92
2023-10-26T10:01:33.775Z,25.20
2023-10-26T10:04:02.254Z,24.65
2023-10-26T10:06:50.854Z,26.17
2023-10-26T10:09:22.513Z,26.33
2023-10-26T10:12:27.117Z,25.92
2023-10-26T10:15:22.144Z,25.63
2023-10-26T10:18:16.610Z,27.27
2023-10-26T10:20:44.876Z,26.42
2023-10-26T10:23:31.510Z,25.65
2023-10-26T10:26:11.702Z,25.88
2023-10-26T10:28:52.885Z,27.13
2023-10-26T10:31:39.993Z,26.20
2023-10-26T10:34:14.291Z,26.50
2023-10-26T10:37:14.070Z,26.10
2023-10-26T10:40:16.589Z,26.30
2023-10-26T10:42:50.532Z,25.40
2023-10-26T10:45:19.380Z,25.35
2023-10-26T10:47:49.257Z,24.10
2023-10-26T10:50:18.785Z,25.27
2023-10-26T10:52:47.067Z,24.45
2023-10-26T10:55:21.303Z,24.48
2023-10-26T10:57:58.604Z,24.92
2023-10-26T11:00:27.697Z,23.20
2023-10-26T11:02:58.948Z,22.60
2023-10-26T11:05:38.426Z,22.45
2023-10-26T11:08:07.253Z,22.00
2023-10-26T11:10:35.615Z,21.75
2023-10-26T11:13:05.553Z,21.77
2023-10-26T11:15:34.492Z,20.77
2023-10-26T11:18:03.458Z,20.08
2023-10-26T11:20:37.748Z,20.80
2023-10-26T11:23:06.080Z,20.37
2023-10-26T11:25:34.551Z,21.30
2023-10-26T11:28:04.458Z,20.10
2023-10-26T11:30:46.470Z,20.38
2023-10-26T11:33:32.926Z,20.52
2023-10-26T11:36:01.329Z,21.58
2023-10-26T11:38:29.512Z,21.20
2023-10-26T11:40:57.664Z,21.98
2023-10-26T11:43:37.715Z,22.52
2023-10-26T11:46:06.038Z,23.15
2023-10-26T11:48:34.821Z,21.63
2023-10-26T11:51:07.670Z,22.30
2023-10-26T11:53:36.648Z,21.40
2023-10-26T11:56:05.477Z,22.83
2023-10-26T11:58:34.414Z,24.00
2023-10-26T12:01:04.847Z,24.10
2023-10-26T12:03:33.022Z,22.77
2023-10-26T12:06:01.141Z,23.38
2023-10-26T12:08:31.141Z,22.45
2023-10-26T12:10:59.230Z,22.65
2023-10-26T12:13:27.300Z,22.40
2023-10-26T12:15:55.404Z,22.43
2023-10-26T12:18:24.854Z,20.10
2023-10-26T12:20:53.056Z,20.00
2023-10-26T12:23:21.172Z,20.80
2023-10-26T12:25:49.259Z,19.60
2023-10-26T12:28:23.628Z,19.88
2023-10-26T12:30:54.803Z,18.53
2023-10-26T12:33:24.430Z,19.17
2023-10-26T12:35:52.726Z,18.92
2023-10-26T12:38:23.230Z,18.30
2023-10-26T12:40:51.331Z,20.88
2023-10-26T12:43:19.493Z,20.30
2023-10-26T12:45:47.645Z,18.88
2023-10-26T12:48:15.756Z,18.13
2023-10-26T12:50:45.228Z,18.33
2023-10-26T12:53:13.762Z,18.85
2023-10-26T12:55:42.184Z,17.77
2023-10-26T12:58:10.251Z,18.83
2023-10-26T13:00:38.486Z,18.98
2023-10-26T13:03:06.740Z,19.70
2023-10-26T13:05:34.855Z,19.10
2023-10-26T13:08:05.106Z,18.95
2023-10-26T13:10:33.254Z,19.45
2023-10-26T13:13:01.534Z,19.20
2023-10-26T13:15:29.744Z,18.40
2023-10-26T13:17:57.888Z,18.58
2023-10-26T13:20:27.071Z,24.30
2023-10-26T13:22:55.252Z,21.60
2023-10-26T13:25:25.199Z,21.80
2023-10-26T13:27:53.632Z,18.55
2023-10-26T13:30:21.865Z,18.90
2023-10-26T13:32:50.047Z,19.90
2023-10-26T13:35:18.245Z,19.27
2023-10-26T13:37:47.611Z,18.60
2023-10-26T13:40:15.769Z,18.67
2023-10-26T13:42:45.252Z,19.02
2023-10-26T13:45:15.558Z,18.88
2023-10-26T13:47:43.681Z,18.67
2023-10-26T13:50:11.925Z,18.67
2023-10-26T13:52:40.174Z,18.83
2023-10-26T13:55:08.795Z,18.27
2023-10-26T13:57:36.964Z,19.00
2023-10-26T14:00:09.962Z,18.42
2023-10-26T14:02:40.551Z,19.58
2023-10-26T14:05:28.949Z,18.92
2023-10-26T14:07:58.532Z,19.38
2023-10-26T14:10:27.223Z,18.63
2023-10-26T14:12:55.407Z,19.05
2023-10-26T14:15:25.216Z,19.53
2023-10-26T14:17:53.399Z,21.50
2023-10-26T14:20:21.733Z,19.75
2023-10-26T14:22:49.749Z,19.77
2023-10-26T14:25:17.829Z,20.43
2023-10-26T14:27:46.046Z,19.35
2023-10-26T14:30:14.868Z,19.50
2023-10-26T14:32:44.409Z,20.30
2023-10-26T14:35:12.585Z,20.20
2023-10-26T14:37:40.815Z,19.80
2023-10-26T14:40:10.024Z,20.63
2023-10-26T14:42:38.642Z,19.55
2023-10-26T14:45:07.731Z,20.20
2023-10-26T14:47:35.828Z,20.73
2023-10-26T14:50:05.701Z,21.65
2023-10-26T14:52:34.030Z,21.70
2023-10-26T14:55:02.596Z,21.23
2023-10-26T14:57:30.854Z,21.15
2023-10-26T14:59:58.990Z,21.27
2023-10-26T15:02:27.482Z,21.07
2023-10-26T15:04:55.771Z,21.88
2023-10-26T15:07:25.567Z,20.88
2023-10-26T15:10:21.875Z,21.13
2023-10-26T15:12:41.817Z,19.50
2023-10-26T15:15:10.634Z,20.20
2023-10-26T15:17:38.791Z,20.35
2023-10-26T15:20:08.344Z,18.85
2023-10-26T15:22:37.889Z,18.48
2023-10-26T15:25:06.743Z,18.80
2023-10-26T15:27:34.942Z,17.92
2023-10-26T15:30:03.574Z,19.75
2023-10-26T15:32:32.115Z,19.60
2023-10-26T15:35:00.296Z,18.92
2023-10-26T15:37:28.639Z,18.88
2023-10-26T15:39:58.515Z,19.45
2023-10-26T15:42:26.722Z,19.65
2023-10-26T15:44:55.772Z,18.33
2023-10-26T15:47:25.381Z,18.80
2023-10-26T15:49:53.830Z,18.63
2023-10-26T15:52:22.287Z,18.60
2023-10-26T15:54:50.405Z,19.52
2023-10-26T15:57:20.394Z,19.88
2023-10-26T15:59:49.134Z,19.75
2023-10-26T16:02:17.323Z,19.67
2023-10-26T16:04:45.587Z,21.17
2023-10-26T16:07:13.972Z,20.10
2023-10-26T16:09:42.074Z,19.83
2023-10-26T16:12:11.227Z,20.45
2023-10-26T16:14:40.729Z,20.50
2023-10-26T16:17:09.348Z,20.15
2023-10-26T16:19:37.483Z,21.15
2023-10-26T16:22:06.073Z,20.17
2023-10-26T16:24:34.246Z,21.65
2023-10-26T16:27:02.465Z,21.20
2023-10-26T16:29:30.530Z,19.92
2023-10-26T16:31:59.974Z,21.03
2023-10-26T16:34:28.190Z,22.05
2023-10-26T16:36:56.292Z,22.13
2023-10-26T16:39:24.897Z,21.15
2023-10-26T16:41:52.963Z,21.10
2023-10-26T16:44:21.035Z,21.02
2023-10-26T16:46:49.168Z,21.48
2023-10-26T16:49:18.890Z,21.30
2023-10-26T16:51:46.977Z,22.03
2023-10-26T16:54:15.286Z,23.45
2023-10-26T16:56:43.408Z,24.10
2023-10-26T16:59:11.521Z,24.67
2023-10-26T17:01:39.605Z,24.20
2023-10-26T17:04:07.895Z,22.90
2023-10-26T17:06:37.335Z,23.92
2023-10-26T17:09:05.852Z,23.25
2023-10-26T17:11:33.928Z,22.05
2023-10-26T17:14:02.012Z,22.00
2023-10-26T17:16:30.223Z,22.42
2023-10-26T17:18:58.329Z,23.17
2023-10-26T17:21:26.655Z,23.38
2023-10-26T17:23:56.123Z,22.30
2023-10-26T17:26:24.141Z,23.98
2023-10-26T17:28:52.227Z,23.40
2023-10-26T17:31:20.511Z,25.27
2023-10-26T17:33:49.423Z,24.55
2023-10-26T17:36:17.512Z,25.30
2023-10-26T17:38:45.544Z,24.70
2023-10-26T17:41:17.069Z,24.48
2023-10-26T17:43:45.180Z,24.58
2023-10-26T17:46:16.824Z,26.27
2023-10-26T17:48:45.728Z,26.88
2023-10-26T17:51:14.363Z,27.30
2023-10-26T17:53:42.969Z,28.25
2023-10-26T17:56:14.105Z,26.58
2023-10-26T17:58:44.111Z,24.40
2023-10-26T18:01:13.233Z,25.30
2023-10-26T18:03:41.593Z,24.27
2023-10-26T18:06:09.997Z,26.10
2023-10-26T18:08:39.241Z,26.50
2023-10-26T18:11:07.512Z,26.13
2023-10-26T18:13:36.444Z,25.35
2023-10-26T18:16:08.640Z,24.63
2023-10-26T18:18:37.627Z,25.30
2023-10-26T18:21:07.545Z,24.58
2023-10-26T18:23:37.344Z,24.30
2023-10-26T18:26:06.678Z,25.60
2023-10-26T18:28:36.152Z,25.63
2023-10-26T18:31:09.838Z,26.00
2023-10-26T18:33:39.306Z,26.73
2023-10-26T18:36:10.348Z,25.63
2023-10-26T18:38:39.175Z,26.30
2023-10-26T18:41:07.285Z,25.40
2023-10-26T18:43:36.259Z,24.55
2023-10-26T18:46:07.735Z,25.00
2023-10-26T18:48:37.447Z,23.13
2023-10-26T18:51:07.098Z,23.15
2023-10-26T18:53:36.448Z,22.97
2023-10-26T18:56:05.398Z,22.53
2023-10-26T18:58:34.690Z,23.00
2023-10-26T19:01:03.472Z,23.98
2023-10-26T19:03:35.905Z,25.13
2023-10-26T19:06:06.801Z,25.75
2023-10-26T19:08:34.867Z,27.15
2023-10-26T19:11:02.910Z,27.02
2023-10-26T19:13:31.341Z,27.02
2023-10-26T19:16:00.102Z,27.20
2023-10-26T19:18:28.223Z,27.05
2023-10-26T19:20:57.728Z,26.83
2023-10-26T19:23:25.822Z,27.63
2023-10-26T19:25:54.662Z,27.73
2023-10-26T19:28:23.349Z,26.13
2023-10-26T19:30:56.062Z,25.80
2023-10-26T19:33:25.733Z,24.90
2023-10-26T19:35:54.342Z,26.88
2023-10-26T19:38:24.007Z,26.35
2023-10-26T19:40:52.113Z,25.80
2023-10-26T19:43:20.201Z,26.85
2023-10-26T19:45:48.415Z,26.70
2023-10-26T19:48:16.530Z,26.17
2023-10-26T19:50:44.608Z,27.48
2023-10-26T19:53:13.227Z,27.55
2023-10-26T19:55:43.472Z,28.85
2023-10-26T19:58:11.576Z,28.52
2023-10-26T20:00:39.660Z,29.47
2023-10-26T20:03:07.954Z,30.30
2023-10-26T20:05:36.292Z,29.70
2023-10-26T20:08:04.330Z,31.85
2023-10-26T20:10:32.556Z,29.88
2023-10-26T20:13:02.041Z,31.95
2023-10-26T20:15:30.167Z,30.63
2023-10-26T20:17:58.269Z,31.55
2023-10-26T20:20:29.433Z,30.33
2023-10-26T20:22:57.633Z,28.60
2023-10-26T20:25:25.789Z,29.92
2023-10-26T20:27:54.399Z,28.13
2023-10-26T20:30:23.930Z,29.13
2023-10-26T20:32:52.015Z,28.77
2023-10-26T20:35:20.124Z,28.63
2023-10-26T20:37:48.308Z,29.08
2023-10-26T20:40:16.512Z,29.25
2023-10-26T20:42:46.347Z,29.08
2023-10-26T20:45:14.877Z,28.45
2023-10-26T20:47:44.432Z,28.40
2023-10-26T20:50:13.451Z,28.13
2023-10-26T20:52:41.504Z,29.07
2023-10-26T20:55:10.482Z,29.00
2023-10-26T20:57:38.598Z,29.63
2023-10-26T21:00:08.011Z,28.65
2023-10-26T21:02:37.228Z,29.50
2023-10-26T21:05:07.078Z,28.15
2023-10-26T21:07:35.205Z,27.83
2023-10-26T21:10:03.630Z,27.80
2023-10-26T21:12:31.746Z,27.73
2023-10-26T21:14:59.752Z,26.63
2023-10-26T21:17:29.981Z,27.30
2023-10-26T21:19:58.170Z,26.30
2023-10-26T21:22:27.636Z,27.02
2023-10-26T21:24:55.693Z,26.70
2023-10-26T21:27:24.567Z,26.80
2023-10-26T21:29:52.582Z,26.25
2023-10-26T21:32:20.729Z,26.00
2023-10-26T21:34:48.793Z,27.13
2023-10-26T21:37:17.365Z,25.50
2023-10-26T21:39:47.124Z,26.83
2023-10-26T21:42:15.266Z,24.85
2023-10-26T21:44:43.408Z,25.63
2023-10-26T21:47:12.067Z,26.02
2023-10-26T21:49:40.156Z,25.95
2023-10-26T21:52:08.248Z,25.42
2023-10-26T21:54:36.327Z,26.48
2023-10-26T21:57:06.524Z,24.70
2023-10-26T21:59:34.567Z,26.65
2023-10-26T22:02:03.031Z,26.20
2023-10-26T22:04:31.854Z,25.40
2023-10-26T22:07:00.015Z,25.48
2023-10-26T22:09:28.729Z,24.88
2023-10-26T22:11:58.068Z,24.10
2023-10-26T22:14:27.580Z,25.50
2023-10-26T22:16:55.667Z,25.50
2023-10-26T22:19:24.953Z,25.10
2023-10-26T22:21:53.193Z,24.75
2023-10-26T22:24:21.282Z,24.35
2023-10-26T22:26:49.330Z,25.25
2023-10-26T22:29:29.397Z,24.25
2023-10-26T22:31:59.940Z,24.80
2023-10-26T22:34:28.186Z,25.17
2023-10-26T22:36:56.374Z,24.58
2023-10-26T22:39:24.765Z,25.30
2023-10-26T22:41:52.811Z,24.63
2023-10-26T22:44:20.899Z,24.88
2023-10-26T22:46:48.931Z,24.50
2023-10-26T22:49:18.428Z,25.17
2023-10-26T22:51:46.493Z,23.25
2023-10-26T22:54:14.529Z,22.70
2023-10-26T22:56:42.786Z,24.10
2023-10-26T22:59:10.766Z,25.63
2023-10-26T23:01:38.805Z,25.95
2023-10-26T23:04:07.487Z,24.95
2023-10-26T23:06:36.931Z,23.50
2023-10-26T23:09:05.498Z,22.67
2023-10-26T23:11:33.767Z,24.77
2023-10-26T23:14:01.931Z,24.17
2023-10-26T23:16:30.085Z,22.63
2023-10-26T23:18:58.576Z,24.50
2023-10-26T23:21:27.405Z,24.10
2023-10-26T23:23:57.793Z,24.00
2023-10-26T23:26:25.875Z,24.13
2023-10-26T23:28:53.920Z,24.73
2023-10-26T23:31:22.015Z,24.48
2023-10-26T23:33:50.433Z,23.88
2023-10-26T23:36:18.565Z,23.95
2023-10-26T23:38:46.773Z,23.92
2023-10-26T23:41:16.261Z,23.73
2023-10-26T23:43:45.534Z,23.70
2023-10-26T23:46:13.685Z,23.40
2023-10-26T23:48:41.991Z,23.23
2023-10-26T23:51:10.119Z,22.23
2023-10-26T23:53:38.170Z,22.35
2023-10-26T23:56:07.487Z,22.50
2023-10-26T23:58:36.893Z,23.00
